Time;durP1;ratioP1;P1;durP2;ratioP2;P2;SDS_P1;SDS_P2;PMS_P1;PMS_P2;Temp;Humidity;BMP_temperature;BMP_pressure;BME280_temperature;BME280_humidity;BME280_pressure;Samples;Min_cycle;Max_cycle;Signal;HPM_P1;HPM_P2
2023/01/28 00:02:23;;;;;;;64.15;8.32;;;;;;;;;;5074335;28;20221;-69
2023/01/28 00:04:51;;;;;;;64.93;8.77;;;;;;;;;;5074567;28;20214;-69
2023/01/28 00:07:19;;;;;;;64.65;7.75;;;;;;;;;;5074537;28;20202;-69
2023/01/28 00:09:46;;;;;;;63.88;8.80;;;;;;;;;;5073464;28;20259;-69
2023/01/28 00:12:13;;;;;;;63.95;8.18;;;;;;;;;;5073249;28;20206;-69
2023/01/28 00:14:40;;;;;;;63.55;8.20;;;;;;;;;;5074493;28;20230;-70
2023/01/28 00:17:07;;;;;;;64.10;7.70;;;;;;;;;;5074334;28;20589;-69
2023/01/28 00:19:34;;;;;;;64.00;9.27;;;;;;;;;;5073525;28;20208;-69
2023/01/28 00:22:03;;;;;;;66.82;8.20;;;;;;;;;;5074082;28;20207;-69
2023/01/28 00:24:30;;;;;;;63.95;8.82;;;;;;;;;;5073872;28;20267;-69
2023/01/28 00:26:57;;;;;;;64.50;8.40;;;;;;;;;;5074385;28;20203;-69
2023/01/28 00:29:24;;;;;;;63.70;8.15;;;;;;;;;;5073180;28;20219;-69
2023/01/28 00:31:52;;;;;;;63.58;7.90;;;;;;;;;;5073904;28;20208;-69
2023/01/28 00:34:19;;;;;;;64.43;9.13;;;;;;;;;;5074231;28;20227;-69
2023/01/28 00:36:56;;;;;;;65.65;8.07;;;;;;;;;;5073722;28;20238;-69
2023/01/28 00:39:25;;;;;;;64.80;8.88;;;;;;;;;;5073220;28;20210;-69
2023/01/28 00:41:52;;;;;;;65.57;8.30;;;;;;;;;;5073826;28;20679;-69
2023/01/28 00:44:19;;;;;;;66.88;8.98;;;;;;;;;;5073599;28;20231;-68
2023/01/28 00:46:46;;;;;;;63.15;7.43;;;;;;;;;;5073665;28;20212;-69
2023/01/28 00:49:14;;;;;;;61.83;7.43;;;;;;;;;;5072705;28;20204;-69
2023/01/28 00:51:41;;;;;;;64.30;8.18;;;;;;;;;;5073904;28;20207;-70
2023/01/28 00:54:08;;;;;;;62.83;7.85;;;;;;;;;;5073799;28;20228;-69
2023/01/28 00:56:37;;;;;;;63.83;7.93;;;;;;;;;;5073711;28;20251;-70
2023/01/28 00:59:04;;;;;;;62.95;8.20;;;;;;;;;;5072963;28;20248;-70
2023/01/28 01:01:31;;;;;;;63.90;8.23;;;;;;;;;;5073457;28;20209;-70
2023/01/28 01:04:02;;;;;;;63.35;7.38;;;;;;;;;;5073211;28;20235;-69
2023/01/28 01:06:30;;;;;;;63.22;8.13;;;;;;;;;;5073530;28;20205;-70
2023/01/28 01:08:57;;;;;;;64.50;8.55;;;;;;;;;;5072672;28;20576;-69
2023/01/28 01:11:24;;;;;;;62.80;7.45;;;;;;;;;;5073359;28;20291;-68
2023/01/28 01:13:55;;;;;;;64.32;8.73;;;;;;;;;;5073282;28;20228;-70
2023/01/28 01:16:24;;;;;;;63.60;7.55;;;;;;;;;;5072961;28;20269;-69
2023/01/28 01:18:51;;;;;;;64.50;7.40;;;;;;;;;;5072558;28;20679;-69
2023/01/28 01:21:19;;;;;;;64.95;6.95;;;;;;;;;;5073022;28;20226;-69
2023/01/28 01:23:47;;;;;;;64.88;8.45;;;;;;;;;;5072370;28;20232;-69
2023/01/28 01:26:14;;;;;;;63.35;7.40;;;;;;;;;;5073021;28;20211;-70
2023/01/28 01:28:41;;;;;;;62.03;6.97;;;;;;;;;;5072059;28;20205;-69
2023/01/28 01:31:13;;;;;;;66.65;7.55;;;;;;;;;;5072678;28;20207;-69
2023/01/28 01:33:41;;;;;;;63.58;8.20;;;;;;;;;;5072883;28;20263;-68
2023/01/28 01:36:08;;;;;;;62.90;6.75;;;;;;;;;;5072750;28;20227;-69
2023/01/28 01:38:36;;;;;;;63.72;7.90;;;;;;;;;;5071832;28;20212;-69
2023/01/28 01:41:04;;;;;;;64.07;8.07;;;;;;;;;;5072574;28;20305;-69
2023/01/28 01:43:47;;;;;;;62.47;6.97;;;;;;;;;;5072858;28;20711;-69
2023/01/28 01:46:16;;;;;;;62.17;6.72;;;;;;;;;;5072822;28;20211;-69
2023/01/28 01:48:43;;;;;;;62.97;7.43;;;;;;;;;;5071716;28;20701;-69
2023/01/28 01:51:12;;;;;;;62.58;7.05;;;;;;;;;;5072585;28;20216;-70
2023/01/28 01:53:41;;;;;;;64.38;8.02;;;;;;;;;;5072139;28;20230;-69
2023/01/28 01:56:10;;;;;;;63.10;7.35;;;;;;;;;;5072689;28;20238;-69
2023/01/28 01:58:40;;;;;;;64.22;8.13;;;;;;;;;;5071664;28;20211;-69
2023/01/28 02:01:07;;;;;;;64.15;7.30;;;;;;;;;;5072352;28;20206;-70
2023/01/28 02:03:39;;;;;;;63.47;7.50;;;;;;;;;;5072280;28;20227;-69
2023/01/28 02:06:06;;;;;;;63.25;6.72;;;;;;;;;;5072133;28;20211;-68
2023/01/28 02:08:33;;;;;;;63.17;7.85;;;;;;;;;;5071553;28;20207;-69
2023/01/28 02:11:02;;;;;;;65.07;8.15;;;;;;;;;;5072075;28;20208;-69
2023/01/28 02:13:30;;;;;;;63.42;7.40;;;;;;;;;;5072025;28;20237;-69
2023/01/28 02:16:00;;;;;;;61.95;6.20;;;;;;;;;;5071990;28;20207;-69
2023/01/28 02:18:27;;;;;;;63.97;7.63;;;;;;;;;;5071751;28;20249;-69
2023/01/28 02:21:11;;;;;;;61.47;6.68;;;;;;;;;;5071325;28;20212;-69
2023/01/28 02:23:47;;;;;;;64.68;8.73;;;;;;;;;;5072148;28;20255;-69
2023/01/28 02:26:26;;;;;;;63.80;7.78;;;;;;;;;;5072225;28;20203;-68
2023/01/28 02:28:58;;;;;;;62.78;7.78;;;;;;;;;;5071220;28;20236;-69
2023/01/28 02:31:27;;;;;;;63.22;7.82;;;;;;;;;;5071839;28;20207;-69
2023/01/28 02:33:57;;;;;;;62.70;7.15;;;;;;;;;;5071250;28;20231;-70
2023/01/28 02:36:29;;;;;;;63.53;7.78;;;;;;;;;;5071805;28;20229;-68
2023/01/28 02:38:59;;;;;;;63.58;8.00;;;;;;;;;;5068132;28;20211;-69
2023/01/28 02:41:29;;;;;;;62.50;7.13;;;;;;;;;;5071772;28;20570;-70
2023/01/28 02:43:58;;;;;;;62.60;7.78;;;;;;;;;;5072064;28;20712;-69
2023/01/28 02:49:22;;;;;;;62.90;7.47;;;;;;;;;;5070866;28;20277;-69
2023/01/28 02:51:55;;;;;;;64.10;7.20;;;;;;;;;;5071747;28;20204;-69
2023/01/28 02:54:28;;;;;;;64.68;8.30;;;;;;;;;;5071827;28;20238;-69
2023/01/28 02:56:58;;;;;;;62.75;8.23;;;;;;;;;;5071767;28;20238;-69
2023/01/28 02:59:32;;;;;;;69.18;8.15;;;;;;;;;;5070773;28;20206;-68
2023/01/28 03:02:02;;;;;;;62.97;7.50;;;;;;;;;;5071898;28;20290;-69
2023/01/28 03:04:30;;;;;;;65.03;7.57;;;;;;;;;;5071661;28;20226;-69
2023/01/28 03:07:03;;;;;;;62.90;7.20;;;;;;;;;;5071764;28;20204;-69
2023/01/28 03:09:29;;;;;;;63.42;7.57;;;;;;;;;;5070864;28;20303;-69
2023/01/28 03:36:57;;;;;;;63.17;7.30;;;;;;;;;;5071183;28;20276;-69
2023/01/28 03:39:25;;;;;;;63.58;7.53;;;;;;;;;;5070298;28;20689;-69
2023/01/28 03:41:59;;;;;;;63.90;7.78;;;;;;;;;;5071596;28;20216;-69
2023/01/28 03:47:13;;;;;;;64.35;9.10;;;;;;;;;;5074415;28;20261;-69
2023/01/28 03:49:41;;;;;;;65.45;9.40;;;;;;;;;;5073992;28;20215;-69
2023/01/28 03:52:08;;;;;;;64.55;8.70;;;;;;;;;;5075089;28;20204;-69
2023/01/28 03:54:35;;;;;;;64.72;9.25;;;;;;;;;;5074863;28;20242;-69
2023/01/28 03:57:02;;;;;;;67.45;8.95;;;;;;;;;;5074678;28;20231;-69
2023/01/28 03:59:29;;;;;;;65.03;9.25;;;;;;;;;;5073789;28;20702;-69
2023/01/28 04:01:57;;;;;;;66.85;9.88;;;;;;;;;;5074557;28;20203;-69
2023/01/28 04:04:25;;;;;;;67.03;10.60;;;;;;;;;;5074505;28;20228;-69
2023/01/28 04:06:53;;;;;;;67.32;9.95;;;;;;;;;;5074478;28;20203;-69
2023/01/28 04:09:20;;;;;;;65.70;10.45;;;;;;;;;;5073769;28;20212;-69
2023/01/28 04:11:47;;;;;;;66.93;10.75;;;;;;;;;;5074432;28;20679;-69
2023/01/28 04:14:15;;;;;;;69.22;10.98;;;;;;;;;;5074254;28;20233;-70
2023/01/28 04:16:42;;;;;;;66.65;10.48;;;;;;;;;;5074248;28;20223;-69
2023/01/28 04:19:11;;;;;;;66.70;10.90;;;;;;;;;;5073744;28;20206;-69
2023/01/28 04:21:39;;;;;;;66.22;10.30;;;;;;;;;;5074195;28;20207;-69
2023/01/28 04:24:07;;;;;;;70.05;11.32;;;;;;;;;;5074151;28;20235;-69
2023/01/28 04:26:34;;;;;;;67.93;11.88;;;;;;;;;;5074308;28;20703;-69
2023/01/28 04:29:01;;;;;;;66.25;10.68;;;;;;;;;;5073677;28;20211;-68
2023/01/28 04:31:28;;;;;;;67.93;10.35;;;;;;;;;;5074188;28;20582;-69
2023/01/28 04:33:56;;;;;;;66.63;10.75;;;;;;;;;;5073798;28;20285;-69
2023/01/28 04:36:23;;;;;;;67.18;11.10;;;;;;;;;;5074001;28;20211;-69
2023/01/28 04:38:51;;;;;;;67.55;10.18;;;;;;;;;;5073282;28;20667;-69
2023/01/28 04:41:18;;;;;;;68.18;10.60;;;;;;;;;;5073781;28;20207;-69
2023/01/28 04:43:48;;;;;;;66.93;10.98;;;;;;;;;;5073759;28;20230;-70
2023/01/28 04:46:15;;;;;;;69.35;11.52;;;;;;;;;;5073776;28;20213;-69
2023/01/28 04:48:42;;;;;;;67.13;10.73;;;;;;;;;;5073363;28;20204;-69
2023/01/28 04:51:09;;;;;;;68.25;12.48;;;;;;;;;;5073612;28;20218;-69
2023/01/28 04:53:36;;;;;;;70.22;12.43;;;;;;;;;;5073759;28;20232;-69
2023/01/28 04:56:05;;;;;;;68.78;11.35;;;;;;;;;;5073961;28;20578;-69
2023/01/28 04:58:32;;;;;;;67.47;10.52;;;;;;;;;;5072861;28;20249;-69
2023/01/28 05:01:00;;;;;;;69.55;12.25;;;;;;;;;;5073708;28;20203;-69
2023/01/28 05:03:27;;;;;;;68.18;10.60;;;;;;;;;;5073433;28;20227;-70
2023/01/28 05:05:54;;;;;;;67.47;11.32;;;;;;;;;;5073513;28;20206;-69
2023/01/28 05:08:21;;;;;;;67.32;11.88;;;;;;;;;;5073897;28;20210;-70
2023/01/28 05:10:48;;;;;;;71.43;12.77;;;;;;;;;;5073094;28;20208;-69
2023/01/28 05:13:17;;;;;;;71.63;12.52;;;;;;;;;;5073537;28;20673;-69
2023/01/28 05:15:44;;;;;;;69.03;10.10;;;;;;;;;;5074009;28;20207;-69
2023/01/28 05:18:11;;;;;;;67.82;11.02;;;;;;;;;;5073740;28;20223;-69
2023/01/28 05:20:38;;;;;;;68.43;11.35;;;;;;;;;;5073017;28;20218;-69
2023/01/28 05:23:05;;;;;;;74.20;12.10;;;;;;;;;;5073507;28;20237;-69
2023/01/28 05:25:32;;;;;;;66.53;10.02;;;;;;;;;;5073494;28;20563;-69
2023/01/28 05:27:59;;;;;;;68.63;11.07;;;;;;;;;;5073577;28;20207;-69
2023/01/28 05:30:28;;;;;;;71.88;12.85;;;;;;;;;;5072697;28;20679;-70
2023/01/28 05:32:56;;;;;;;68.05;11.23;;;;;;;;;;5073531;28;20231;-69
2023/01/28 05:35:23;;;;;;;69.20;12.63;;;;;;;;;;5073238;28;20215;-68
2023/01/28 05:37:50;;;;;;;70.30;11.75;;;;;;;;;;5073251;28;20227;-69
2023/01/28 05:40:17;;;;;;;68.85;12.05;;;;;;;;;;5072415;28;20209;-69
2023/01/28 05:42:44;;;;;;;69.28;11.75;;;;;;;;;;5073584;28;20227;-70
2023/01/28 05:45:11;;;;;;;73.85;13.57;;;;;;;;;;5073444;28;20202;-70
2023/01/28 05:47:40;;;;;;;73.20;12.55;;;;;;;;;;5073499;28;20214;-70
2023/01/28 05:50:07;;;;;;;73.10;13.40;;;;;;;;;;5072653;28;20225;-70
2023/01/28 05:52:35;;;;;;;71.78;13.80;;;;;;;;;;5073127;28;20210;-70
2023/01/28 05:55:02;;;;;;;70.30;13.30;;;;;;;;;;5073373;28;20214;-70
2023/01/28 05:57:29;;;;;;;70.55;13.52;;;;;;;;;;5072885;28;20786;-69
2023/01/28 05:59:57;;;;;;;69.90;13.20;;;;;;;;;;5072824;28;20209;-69
2023/01/28 06:02:24;;;;;;;71.53;13.65;;;;;;;;;;5073348;28;20206;-69
2023/01/28 06:04:52;;;;;;;72.75;14.05;;;;;;;;;;5073093;28;20689;-69
2023/01/28 06:07:19;;;;;;;70.95;13.40;;;;;;;;;;5072771;28;20701;-70
2023/01/28 06:09:47;;;;;;;76.03;14.57;;;;;;;;;;5070769;28;20254;-69
2023/01/28 06:12:14;;;;;;;68.55;12.30;;;;;;;;;;5072757;28;20211;-69
2023/01/28 06:14:42;;;;;;;72.10;14.07;;;;;;;;;;5072135;28;20625;-69
2023/01/28 06:17:09;;;;;;;72.07;13.55;;;;;;;;;;5071854;28;20213;-69
2023/01/28 06:19:36;;;;;;;70.22;13.48;;;;;;;;;;5071168;28;20214;-69
2023/01/28 06:22:04;;;;;;;68.35;11.75;;;;;;;;;;5072112;28;20212;-69
2023/01/28 06:24:31;;;;;;;72.50;13.23;;;;;;;;;;5072015;28;20240;-70
2023/01/28 06:26:58;;;;;;;71.07;12.80;;;;;;;;;;5072033;28;20221;-68
2023/01/28 06:29:26;;;;;;;71.45;13.25;;;;;;;;;;5071427;28;20219;-69
2023/01/28 06:31:53;;;;;;;71.53;13.20;;;;;;;;;;5072018;28;20203;-69
2023/01/28 06:34:20;;;;;;;72.32;13.15;;;;;;;;;;5071603;28;20276;-70
2023/01/28 06:36:47;;;;;;;72.65;15.20;;;;;;;;;;5071989;28;20207;-69
2023/01/28 06:39:16;;;;;;;72.10;13.95;;;;;;;;;;5071065;28;20228;-69
2023/01/28 06:41:43;;;;;;;73.35;14.00;;;;;;;;;;5071720;28;20208;-69
2023/01/28 06:44:10;;;;;;;72.55;13.48;;;;;;;;;;5071561;28;20223;-69
2023/01/28 06:46:37;;;;;;;70.38;12.88;;;;;;;;;;5071656;28;20234;-69
2023/01/28 06:49:04;;;;;;;72.43;14.35;;;;;;;;;;5070845;28;20211;-69
2023/01/28 06:51:31;;;;;;;69.82;12.93;;;;;;;;;;5071584;28;20235;-69
2023/01/28 06:53:58;;;;;;;71.60;13.18;;;;;;;;;;5071686;28;20226;-69
2023/01/28 06:56:27;;;;;;;72.13;13.82;;;;;;;;;;5071764;28;20213;-69
2023/01/28 06:58:54;;;;;;;74.82;14.43;;;;;;;;;;5070578;28;20227;-69
2023/01/28 07:01:21;;;;;;;74.03;16.25;;;;;;;;;;5071439;28;20679;-69
2023/01/28 07:03:48;;;;;;;71.55;13.48;;;;;;;;;;5071616;28;20228;-69
2023/01/28 07:06:15;;;;;;;71.18;13.05;;;;;;;;;;5071429;28;20218;-68
2023/01/28 07:08:42;;;;;;;71.90;13.93;;;;;;;;;;5070946;28;20206;-69
2023/01/28 07:11:09;;;;;;;70.32;13.55;;;;;;;;;;5071538;28;20202;-68
2023/01/28 07:13:38;;;;;;;71.53;14.50;;;;;;;;;;5071389;28;20235;-69
2023/01/28 07:16:05;;;;;;;72.25;15.13;;;;;;;;;;5071229;28;20854;-69
2023/01/28 07:18:32;;;;;;;74.22;15.07;;;;;;;;;;5070895;28;20231;-69
2023/01/28 07:20:59;;;;;;;72.03;14.88;;;;;;;;;;5073073;28;20204;-70
2023/01/28 07:23:27;;;;;;;71.80;13.27;;;;;;;;;;5075149;28;20235;-69
2023/01/28 07:25:54;;;;;;;71.80;14.57;;;;;;;;;;5075340;28;20574;-68
2023/01/28 07:28:21;;;;;;;69.88;12.65;;;;;;;;;;5075083;28;20206;-69
2023/01/28 07:30:50;;;;;;;82.15;18.77;;;;;;;;;;5074414;28;20203;-69
2023/01/28 07:33:18;;;;;;;77.47;15.60;;;;;;;;;;5075180;28;20222;-69
2023/01/28 07:35:45;;;;;;;83.53;19.35;;;;;;;;;;5075307;28;20211;-69
2023/01/28 07:38:13;;;;;;;86.40;18.73;;;;;;;;;;5074894;28;20711;-69
2023/01/28 07:40:41;;;;;;;80.38;16.15;;;;;;;;;;5074253;28;20218;-69
2023/01/28 07:43:08;;;;;;;97.03;21.95;;;;;;;;;;5074643;28;20235;-69
2023/01/28 07:45:36;;;;;;;179.88;51.55;;;;;;;;;;5074751;28;20218;-69
2023/01/28 07:48:05;;;;;;;88.68;20.77;;;;;;;;;;5074638;28;20240;-69
2023/01/28 07:50:34;;;;;;;87.07;17.80;;;;;;;;;;5074164;28;20565;-69
2023/01/28 07:53:03;;;;;;;74.15;15.27;;;;;;;;;;5074799;28;20318;-69
2023/01/28 07:55:30;;;;;;;70.88;12.70;;;;;;;;;;5074623;28;20215;-69
2023/01/28 07:57:58;;;;;;;68.82;12.35;;;;;;;;;;5074651;28;20228;-69
2023/01/28 08:00:26;;;;;;;68.03;12.70;;;;;;;;;;5074100;28;20208;-69
2023/01/28 08:02:56;;;;;;;72.90;14.05;;;;;;;;;;5074698;28;20742;-69
2023/01/28 08:05:25;;;;;;;73.13;13.80;;;;;;;;;;5074596;28;20230;-69
2023/01/28 08:07:53;;;;;;;71.53;14.93;;;;;;;;;;5074455;28;20728;-70
2023/01/28 08:10:20;;;;;;;71.57;14.63;;;;;;;;;;5074015;28;20579;-70
2023/01/28 08:12:51;;;;;;;68.00;11.48;;;;;;;;;;5074610;28;20227;-69
2023/01/28 08:15:19;;;;;;;72.22;13.90;;;;;;;;;;5074540;28;20209;-69
2023/01/28 08:17:46;;;;;;;70.72;13.93;;;;;;;;;;5074286;28;20219;-70
2023/01/28 08:20:13;;;;;;;68.57;11.90;;;;;;;;;;5073394;28;20219;-70
2023/01/28 08:22:42;;;;;;;70.80;12.68;;;;;;;;;;5074040;28;20265;-69
2023/01/28 08:25:09;;;;;;;70.28;13.23;;;;;;;;;;5074002;28;20224;-70
2023/01/28 08:27:36;;;;;;;72.85;12.95;;;;;;;;;;5074049;28;20212;-69
2023/01/28 08:30:03;;;;;;;69.32;12.00;;;;;;;;;;5073524;28;20204;-69
2023/01/28 08:32:30;;;;;;;71.07;13.07;;;;;;;;;;5073015;28;20201;-70
2023/01/28 08:34:57;;;;;;;69.75;11.73;;;;;;;;;;5074062;28;20216;-69
2023/01/28 08:37:25;;;;;;;70.35;12.95;;;;;;;;;;5074083;28;20218;-70
2023/01/28 08:39:53;;;;;;;72.00;13.13;;;;;;;;;;5073322;28;20600;-69
2023/01/28 08:42:20;;;;;;;69.68;11.60;;;;;;;;;;5073959;28;20244;-70
2023/01/28 08:44:47;;;;;;;72.03;12.35;;;;;;;;;;5073529;28;20716;-70
2023/01/28 08:47:15;;;;;;;70.25;11.45;;;;;;;;;;5073325;28;20208;-69
2023/01/28 08:49:42;;;;;;;69.93;12.80;;;;;;;;;;5072352;28;20205;-69
2023/01/28 08:52:09;;;;;;;68.55;11.95;;;;;;;;;;5073954;28;20578;-69
2023/01/28 08:54:36;;;;;;;72.30;12.70;;;;;;;;;;5073593;28;20252;-69
2023/01/28 08:57:05;;;;;;;68.00;11.75;;;;;;;;;;5073855;28;20211;-69
2023/01/28 08:59:32;;;;;;;68.88;13.20;;;;;;;;;;5073071;28;20497;-69
2023/01/28 09:01:59;;;;;;;73.38;14.00;;;;;;;;;;5073475;28;20209;-68
2023/01/28 09:04:26;;;;;;;69.68;12.45;;;;;;;;;;5073205;28;20244;-69
2023/01/28 09:06:54;;;;;;;70.75;12.80;;;;;;;;;;5073547;28;20232;-69
2023/01/28 09:09:21;;;;;;;72.07;14.45;;;;;;;;;;5072673;28;20205;-68
2023/01/28 09:11:48;;;;;;;71.85;14.63;;;;;;;;;;5073649;28;20208;-69
2023/01/28 09:14:17;;;;;;;69.75;14.30;;;;;;;;;;5073127;28;20229;-68
2023/01/28 09:16:44;;;;;;;71.78;13.02;;;;;;;;;;5073065;28;20201;-68
2023/01/28 09:19:11;;;;;;;74.28;15.07;;;;;;;;;;5072444;28;20236;-68
2023/01/28 09:21:39;;;;;;;72.18;14.02;;;;;;;;;;5073332;28;20205;-68
2023/01/28 09:24:06;;;;;;;73.13;14.25;;;;;;;;;;5073136;28;20566;-68
2023/01/28 09:26:34;;;;;;;73.68;13.55;;;;;;;;;;5072953;28;20204;-68
2023/01/28 09:29:01;;;;;;;69.88;13.10;;;;;;;;;;5072082;28;20209;-68
2023/01/28 09:31:29;;;;;;;71.05;13.45;;;;;;;;;;5072779;28;20217;-68
2023/01/28 09:33:56;;;;;;;71.15;13.30;;;;;;;;;;5072891;28;20240;-68
2023/01/28 09:36:24;;;;;;;73.75;13.55;;;;;;;;;;5072881;28;20585;-68
2023/01/28 09:38:51;;;;;;;71.95;14.40;;;;;;;;;;5071905;28;20599;-67
2023/01/28 09:41:24;;;;;;;71.03;13.85;;;;;;;;;;5072556;28;20209;-68
2023/01/28 09:43:58;;;;;;;71.07;13.02;;;;;;;;;;5072299;28;20225;-68
2023/01/28 09:46:29;;;;;;;69.47;12.73;;;;;;;;;;5072788;28;20629;-68
2023/01/28 09:49:00;;;;;;;72.95;13.60;;;;;;;;;;5071898;28;20200;-68
2023/01/28 09:51:34;;;;;;;72.63;14.07;;;;;;;;;;5072228;28;20295;-68
2023/01/28 09:54:04;;;;;;;70.40;12.45;;;;;;;;;;5072280;28;20709;-68
2023/01/28 09:56:32;;;;;;;73.03;14.00;;;;;;;;;;5072313;28;20215;-69
2023/01/28 09:59:02;;;;;;;73.35;14.70;;;;;;;;;;5071691;28;20229;-68
2023/01/28 10:01:37;;;;;;;72.45;14.65;;;;;;;;;;5072431;28;20703;-69
2023/01/28 10:04:10;;;;;;;70.80;13.00;;;;;;;;;;5072088;28;20227;-69
2023/01/28 10:06:43;;;;;;;72.20;13.15;;;;;;;;;;5072335;28;20209;-69
2023/01/28 10:09:22;;;;;;;73.47;14.65;;;;;;;;;;5071495;28;20208;-70
2023/01/28 10:12:03;;;;;;;72.88;13.82;;;;;;;;;;5071982;28;20200;-69
2023/01/28 10:14:37;;;;;;;75.70;14.48;;;;;;;;;;5072131;28;20232;-69
2023/01/28 10:17:08;;;;;;;70.97;13.20;;;;;;;;;;5072035;28;20673;-69
2023/01/28 10:19:40;;;;;;;71.45;14.10;;;;;;;;;;5071454;28;20233;-68
2023/01/28 10:22:10;;;;;;;71.70;14.18;;;;;;;;;;5072242;28;20216;-69
2023/01/28 10:24:39;;;;;;;73.00;14.02;;;;;;;;;;5071907;28;20239;-71
2023/01/28 10:27:20;;;;;;;72.70;13.82;;;;;;;;;;5071925;28;20243;-68
2023/01/28 10:29:48;;;;;;;74.10;13.98;;;;;;;;;;5071051;28;20590;-70
2023/01/28 10:32:18;;;;;;;72.35;13.52;;;;;;;;;;5071887;28;20670;-69
2023/01/28 10:34:46;;;;;;;72.03;13.63;;;;;;;;;;5071965;28;20226;-69
2023/01/28 10:37:15;;;;;;;71.30;13.80;;;;;;;;;;5072028;28;20208;-68
2023/01/28 10:39:43;;;;;;;77.53;14.65;;;;;;;;;;5070922;28;20224;-69
2023/01/28 10:42:17;;;;;;;76.22;15.95;;;;;;;;;;5071949;28;20562;-69
2023/01/28 10:44:45;;;;;;;74.45;14.68;;;;;;;;;;5071885;28;20234;-69
2023/01/28 10:47:15;;;;;;;75.03;14.07;;;;;;;;;;5071854;28;20209;-69
2023/01/28 10:49:43;;;;;;;72.10;14.07;;;;;;;;;;5070993;28;20205;-68
2023/01/28 10:52:14;;;;;;;73.72;12.75;;;;;;;;;;5071615;28;20669;-69
2023/01/28 10:54:42;;;;;;;70.90;13.05;;;;;;;;;;5071974;28;20225;-69
2023/01/28 10:57:12;;;;;;;72.40;13.75;;;;;;;;;;5077978;28;20687;-69
2023/01/28 10:59:40;;;;;;;76.93;13.68;;;;;;;;;;5077426;28;20232;-68
2023/01/28 11:02:21;;;;;;;72.40;12.52;;;;;;;;;;5078396;28;20212;-68
2023/01/28 11:04:49;;;;;;;72.20;13.50;;;;;;;;;;5078296;28;20669;-68
2023/01/28 11:07:19;;;;;;;73.00;13.50;;;;;;;;;;5078147;28;20451;-70
2023/01/28 11:09:47;;;;;;;74.95;14.45;;;;;;;;;;5077681;28;20209;-70
2023/01/28 11:12:18;;;;;;;71.95;12.95;;;;;;;;;;5078377;28;20205;-71
2023/01/28 11:14:50;;;;;;;74.68;14.32;;;;;;;;;;5078246;28;20225;-69
2023/01/28 11:17:18;;;;;;;72.53;12.60;;;;;;;;;;5078411;28;20213;-69
2023/01/28 11:19:46;;;;;;;73.35;14.02;;;;;;;;;;5077170;28;20221;-69
2023/01/28 11:22:20;;;;;;;69.85;12.43;;;;;;;;;;5078375;28;20296;-68
2023/01/28 11:24:49;;;;;;;71.60;13.45;;;;;;;;;;5077962;28;20240;-68
2023/01/28 11:27:17;;;;;;;71.40;13.25;;;;;;;;;;5077980;28;20658;-68
2023/01/28 11:29:45;;;;;;;75.80;13.25;;;;;;;;;;5077309;28;20201;-69
2023/01/28 11:32:19;;;;;;;73.53;15.05;;;;;;;;;;5077922;28;20211;-68
2023/01/28 11:34:50;;;;;;;70.05;11.32;;;;;;;;;;5078141;28;20410;-68
2023/01/28 11:37:17;;;;;;;72.15;13.48;;;;;;;;;;5077949;28;20605;-68
2023/01/28 11:39:44;;;;;;;71.43;13.18;;;;;;;;;;5077225;28;20225;-68
2023/01/28 11:42:15;;;;;;;70.72;14.30;;;;;;;;;;5077935;28;20205;-68
2023/01/28 11:44:42;;;;;;;75.28;14.25;;;;;;;;;;5077784;28;20239;-68
2023/01/28 11:47:19;;;;;;;76.35;15.32;;;;;;;;;;5078076;28;20205;-68
2023/01/28 11:49:56;;;;;;;74.72;14.55;;;;;;;;;;5077437;28;20201;-68
2023/01/28 11:52:27;;;;;;;72.93;13.80;;;;;;;;;;5077882;28;20674;-68
2023/01/28 11:55:00;;;;;;;74.22;13.40;;;;;;;;;;5077871;28;20216;-67
2023/01/28 11:57:33;;;;;;;70.40;13.05;;;;;;;;;;5077760;28;20209;-69
2023/01/28 12:00:09;;;;;;;75.15;14.23;;;;;;;;;;5076818;28;20708;-68
2023/01/28 12:02:54;;;;;;;73.00;13.40;;;;;;;;;;5077882;28;20215;-68
2023/01/28 12:05:38;;;;;;;75.80;13.52;;;;;;;;;;5077798;28;20205;-68
2023/01/28 12:08:08;;;;;;;74.13;14.35;;;;;;;;;;5075020;28;20205;-68
2023/01/28 12:10:39;;;;;;;75.88;15.68;;;;;;;;;;5073718;28;20205;-68
2023/01/28 12:13:17;;;;;;;74.35;14.73;;;;;;;;;;5074334;28;20231;-68
2023/01/28 12:15:58;;;;;;;71.53;13.80;;;;;;;;;;5074628;28;20209;-68
2023/01/28 12:18:32;;;;;;;76.38;14.48;;;;;;;;;;5074458;28;20209;-69
2023/01/28 12:21:07;;;;;;;73.85;13.63;;;;;;;;;;5074174;28;20235;-68
2023/01/28 12:23:38;;;;;;;73.22;13.05;;;;;;;;;;5074249;28;20265;-69
2023/01/28 12:26:09;;;;;;;76.82;14.95;;;;;;;;;;5074146;28;20208;-68
2023/01/28 12:28:45;;;;;;;74.28;13.52;;;;;;;;;;5073796;28;20230;-68
2023/01/28 12:31:27;;;;;;;74.40;13.98;;;;;;;;;;5074249;28;20461;-67
2023/01/28 12:34:03;;;;;;;71.65;12.60;;;;;;;;;;5071976;28;20664;-67
2023/01/28 12:36:34;;;;;;;71.28;12.65;;;;;;;;;;5074040;28;20209;-67
2023/01/28 12:39:07;;;;;;;73.15;13.27;;;;;;;;;;5072961;28;20231;-68
2023/01/28 12:41:37;;;;;;;69.88;11.35;;;;;;;;;;5073886;28;20704;-69
2023/01/28 12:44:06;;;;;;;69.95;12.05;;;;;;;;;;5073848;28;20221;-67
2023/01/28 12:46:38;;;;;;;70.75;11.27;;;;;;;;;;5074018;28;20202;-67
2023/01/28 12:49:07;;;;;;;69.10;11.55;;;;;;;;;;5073094;28;20286;-67
2023/01/28 12:51:38;;;;;;;69.55;10.52;;;;;;;;;;5073882;28;20210;-70
2023/01/28 12:54:09;;;;;;;67.28;10.15;;;;;;;;;;5073551;28;20235;-68
2023/01/28 12:56:39;;;;;;;73.63;11.93;;;;;;;;;;5073754;28;20228;-69
2023/01/28 12:59:12;;;;;;;69.07;10.95;;;;;;;;;;5072721;28;20209;-70
2023/01/28 13:01:42;;;;;;;66.07;10.13;;;;;;;;;;5073595;28;20216;-70
2023/01/28 13:04:13;;;;;;;68.07;9.60;;;;;;;;;;5073348;28;20720;-69
2023/01/28 13:06:43;;;;;;;66.35;8.90;;;;;;;;;;5073426;28;20211;-69
2023/01/28 13:09:15;;;;;;;68.43;10.25;;;;;;;;;;5072632;28;20201;-69
2023/01/28 13:11:43;;;;;;;65.55;8.98;;;;;;;;;;5073430;28;20216;-66
2023/01/28 13:14:12;;;;;;;66.60;9.73;;;;;;;;;;5073092;28;20224;-67
2023/01/28 13:16:40;;;;;;;64.57;8.43;;;;;;;;;;5073136;28;20258;-68
2023/01/28 13:19:08;;;;;;;65.95;8.57;;;;;;;;;;5072023;28;20205;-67
2023/01/28 13:21:36;;;;;;;67.22;9.10;;;;;;;;;;5073023;28;20212;-67
2023/01/28 13:24:05;;;;;;;65.80;9.40;;;;;;;;;;5073023;28;20672;-67
2023/01/28 13:26:42;;;;;;;67.03;9.63;;;;;;;;;;5072975;28;20216;-67
2023/01/28 13:29:21;;;;;;;66.68;10.38;;;;;;;;;;5072197;28;20757;-67
2023/01/28 13:31:49;;;;;;;64.18;8.57;;;;;;;;;;5072807;28;20211;-67
2023/01/28 13:34:28;;;;;;;67.57;10.15;;;;;;;;;;5072888;28;20231;-67
2023/01/28 13:36:56;;;;;;;68.03;10.20;;;;;;;;;;5072790;28;20215;-67
2023/01/28 13:39:24;;;;;;;68.45;9.80;;;;;;;;;;5071666;28;20204;-67
2023/01/28 13:41:52;;;;;;;68.38;9.77;;;;;;;;;;5072807;28;20205;-67
2023/01/28 13:44:27;;;;;;;68.70;9.85;;;;;;;;;;5072695;28;20225;-67
2023/01/28 13:46:55;;;;;;;70.30;11.98;;;;;;;;;;5072711;28;20211;-67
2023/01/28 13:49:26;;;;;;;69.40;11.63;;;;;;;;;;5071843;28;20216;-68
2023/01/28 13:51:58;;;;;;;68.13;11.50;;;;;;;;;;5072297;28;20215;-67
2023/01/28 13:54:26;;;;;;;68.97;10.80;;;;;;;;;;5072611;28;20232;-67
2023/01/28 13:56:59;;;;;;;69.50;13.45;;;;;;;;;;5072398;28;20611;-67
2023/01/28 13:59:37;;;;;;;103.18;15.57;;;;;;;;;;5071407;28;20208;-68
2023/01/28 14:02:19;;;;;;;181.23;22.30;;;;;;;;;;5072172;28;20208;-68
2023/01/28 14:05:10;;;;;;;78.40;12.75;;;;;;;;;;5072401;28;20268;-68
2023/01/28 14:07:47;;;;;;;79.88;16.77;;;;;;;;;;5057087;28;20204;-67
2023/01/28 14:10:32;;;;;;;69.63;10.35;;;;;;;;;;5071439;28;20200;-68
2023/01/28 14:13:19;;;;;;;71.45;13.20;;;;;;;;;;5061984;28;20236;-67
2023/01/28 14:16:04;;;;;;;67.38;10.77;;;;;;;;;;5072229;28;20208;-67
2023/01/28 14:18:34;;;;;;;66.65;9.73;;;;;;;;;;5071489;28;20215;-68
2023/01/28 14:21:03;;;;;;;65.97;9.40;;;;;;;;;;5071771;28;20235;-67
2023/01/28 14:23:31;;;;;;;66.45;9.52;;;;;;;;;;5071899;28;20558;-67
2023/01/28 14:26:04;;;;;;;71.60;13.43;;;;;;;;;;5072097;28;20725;-67
2023/01/28 14:28:37;;;;;;;66.28;9.60;;;;;;;;;;5071501;28;20208;-69
2023/01/28 14:31:07;;;;;;;66.80;9.55;;;;;;;;;;5070975;28;20205;-68
2023/01/28 14:33:36;;;;;;;66.38;10.07;;;;;;;;;;5071657;28;20225;-67
2023/01/28 14:36:03;;;;;;;65.63;9.68;;;;;;;;;;5071888;28;20205;-67
2023/01/28 14:38:34;;;;;;;66.28;9.45;;;;;;;;;;5071622;28;20678;-68
2023/01/28 14:41:01;;;;;;;66.78;9.63;;;;;;;;;;5071909;28;20235;-67
2023/01/28 14:43:28;;;;;;;63.95;8.25;;;;;;;;;;5071826;28;20713;-67
2023/01/28 14:46:02;;;;;;;64.50;8.50;;;;;;;;;;5071581;28;20205;-67
2023/01/28 14:48:37;;;;;;;61.78;6.90;;;;;;;;;;5071480;28;20209;-69
2023/01/28 14:51:20;;;;;;;62.40;8.25;;;;;;;;;;5071495;28;20226;-68
2023/01/28 14:53:53;;;;;;;64.03;8.80;;;;;;;;;;5071678;28;20229;-67
2023/01/28 14:56:24;;;;;;;64.18;8.35;;;;;;;;;;5071531;28;20204;-68
2023/01/28 14:58:54;;;;;;;63.40;8.10;;;;;;;;;;5071221;28;20227;-68
2023/01/28 15:01:22;;;;;;;62.55;7.05;;;;;;;;;;5071724;28;20233;-68
2023/01/28 15:03:51;;;;;;;63.90;7.43;;;;;;;;;;5071397;28;20233;-68
2023/01/28 15:06:20;;;;;;;63.42;7.93;;;;;;;;;;5071678;28;20231;-67